sensor_id;sensor_type;location;lat;lon;timestamp;temperature;humidity
31263;DHT22;17892;52.080;9.006;2022-12-11T00:00:50;1.90;99.90
31263;DHT22;17892;52.080;9.006;2022-12-11T00:03:16;1.90;99.90
31263;DHT22;17892;52.080;9.006;2022-12-11T00:05:44;1.90;99.90
31263;DHT22;17892;52.080;9.006;2022-12-11T00:08:11;1.90;99.90
31263;DHT22;17892;52.080;9.006;2022-12-11T00:10:37;1.90;99.90
31263;DHT22;17892;52.080;9.006;2022-12-11T00:13:04;1.90;99.90
31263;DHT22;17892;52.080;9.006;2022-12-11T00:15:30;1.90;99.90
31263;DHT22;17892;52.080;9.006;2022-12-11T00:17:56;1.90;99.90
31263;DHT22;17892;52.080;9.006;2022-12-11T00:20:21;1.90;99.90
31263;DHT22;17892;52.080;9.006;2022-12-11T00:22:47;1.90;99.90
31263;DHT22;17892;52.080;9.006;2022-12-11T00:25:13;1.90;99.90
31263;DHT22;17892;52.080;9.006;2022-12-11T00:27:38;1.90;99.90
31263;DHT22;17892;52.080;9.006;2022-12-11T00:30:05;1.90;99.90
31263;DHT22;17892;52.080;9.006;2022-12-11T00:32:31;1.90;99.90
31263;DHT22;17892;52.080;9.006;2022-12-11T00:34:57;2.00;99.90
31263;DHT22;17892;52.080;9.006;2022-12-11T00:37:23;2.00;99.90
31263;DHT22;17892;52.080;9.006;2022-12-11T00:39:49;2.00;99.90
31263;DHT22;17892;52.080;9.006;2022-12-11T00:42:14;2.00;99.90
31263;DHT22;17892;52.080;9.006;2022-12-11T00:44:40;2.00;99.90
31263;DHT22;17892;52.080;9.006;2022-12-11T00:47:06;2.00;99.90
31263;DHT22;17892;52.080;9.006;2022-12-11T00:49:32;2.00;99.90
31263;DHT22;17892;52.080;9.006;2022-12-11T00:51:58;2.00;99.90
31263;DHT22;17892;52.080;9.006;2022-12-11T00:54:24;2.00;99.90
31263;DHT22;17892;52.080;9.006;2022-12-11T00:56:49;2.00;99.90
31263;DHT22;17892;52.080;9.006;2022-12-11T00:59:15;2.00;99.90
31263;DHT22;17892;52.080;9.006;2022-12-11T01:01:41;2.00;99.90
31263;DHT22;17892;52.080;9.006;2022-12-11T01:04:06;2.00;99.90
31263;DHT22;17892;52.080;9.006;2022-12-11T01:06:32;2.00;99.90
31263;DHT22;17892;52.080;9.006;2022-12-11T01:08:58;1.90;99.90
31263;DHT22;17892;52.080;9.006;2022-12-11T01:11:42;1.90;99.90
31263;DHT22;17892;52.080;9.006;2022-12-11T01:14:09;1.90;99.90
31263;DHT22;17892;52.080;9.006;2022-12-11T01:16:36;1.90;99.90
31263;DHT22;17892;52.080;9.006;2022-12-11T01:19:02;1.90;99.90
31263;DHT22;17892;52.080;9.006;2022-12-11T01:21:28;1.90;99.90
31263;DHT22;17892;52.080;9.006;2022-12-11T01:23:54;1.90;99.90
31263;DHT22;17892;52.080;9.006;2022-12-11T01:26:20;1.90;99.90
31263;DHT22;17892;52.080;9.006;2022-12-11T01:28:49;1.90;99.90
31263;DHT22;17892;52.080;9.006;2022-12-11T01:31:16;1.90;99.90
31263;DHT22;17892;52.080;9.006;2022-12-11T01:33:43;1.90;99.90
31263;DHT22;17892;52.080;9.006;2022-12-11T01:36:17;1.90;99.90
31263;DHT22;17892;52.080;9.006;2022-12-11T01:38:45;1.90;99.90
31263;DHT22;17892;52.080;9.006;2022-12-11T01:41:12;1.90;99.90
31263;DHT22;17892;52.080;9.006;2022-12-11T01:44:07;1.90;99.90
31263;DHT22;17892;52.080;9.006;2022-12-11T01:46:53;1.90;99.90
31263;DHT22;17892;52.080;9.006;2022-12-11T01:49:22;1.90;99.90
31263;DHT22;17892;52.080;9.006;2022-12-11T01:51:54;1.90;99.90
31263;DHT22;17892;52.080;9.006;2022-12-11T01:54:25;1.90;99.90
31263;DHT22;17892;52.080;9.006;2022-12-11T01:56:54;1.90;99.90
31263;DHT22;17892;52.080;9.006;2022-12-11T01:59:26;1.90;99.90
31263;DHT22;17892;52.080;9.006;2022-12-11T02:02:01;2.00;99.90
31263;DHT22;17892;52.080;9.006;2022-12-11T02:04:30;2.00;99.90
31263;DHT22;17892;52.080;9.006;2022-12-11T02:06:56;2.00;99.90
31263;DHT22;17892;52.080;9.006;2022-12-11T02:09:27;2.00;99.90
31263;DHT22;17892;52.080;9.006;2022-12-11T02:12:06;2.00;99.90
31263;DHT22;17892;52.080;9.006;2022-12-11T02:29:18;2.00;99.90
31263;DHT22;17892;52.080;9.006;2022-12-11T02:31:58;2.00;99.90
31263;DHT22;17892;52.080;9.006;2022-12-11T02:34:33;2.00;99.90
31263;DHT22;17892;52.080;9.006;2022-12-11T02:37:11;2.00;99.90
31263;DHT22;17892;52.080;9.006;2022-12-11T02:39:44;2.00;99.90
31263;DHT22;17892;52.080;9.006;2022-12-11T02:42:11;2.00;99.90
31263;DHT22;17892;52.080;9.006;2022-12-11T02:44:39;2.10;99.90
31263;DHT22;17892;52.080;9.006;2022-12-11T02:47:08;2.10;99.90
31263;DHT22;17892;52.080;9.006;2022-12-11T02:49:38;2.00;99.90
31263;DHT22;17892;52.080;9.006;2022-12-11T02:52:06;2.10;99.90
31263;DHT22;17892;52.080;9.006;2022-12-11T02:54:35;2.00;99.90
31263;DHT22;17892;52.080;9.006;2022-12-11T02:57:16;2.10;99.90
31263;DHT22;17892;52.080;9.006;2022-12-11T02:59:56;2.10;99.90
31263;DHT22;17892;52.080;9.006;2022-12-11T03:02:21;2.10;99.90
31263;DHT22;17892;52.080;9.006;2022-12-11T03:04:47;2.10;99.90
31263;DHT22;17892;52.080;9.006;2022-12-11T03:07:20;2.10;99.90
31263;DHT22;17892;52.080;9.006;2022-12-11T03:09:50;2.10;99.90
31263;DHT22;17892;52.080;9.006;2022-12-11T03:12:19;2.20;99.90
31263;DHT22;17892;52.080;9.006;2022-12-11T03:14:48;2.20;99.90
31263;DHT22;17892;52.080;9.006;2022-12-11T03:17:18;2.10;99.90
31263;DHT22;17892;52.080;9.006;2022-12-11T03:20:02;2.20;99.90
31263;DHT22;17892;52.080;9.006;2022-12-11T03:22:47;2.20;99.90
31263;DHT22;17892;52.080;9.006;2022-12-11T03:25:27;2.20;99.90
31263;DHT22;17892;52.080;9.006;2022-12-11T03:28:15;2.20;99.90
31263;DHT22;17892;52.080;9.006;2022-12-11T03:30:45;2.20;99.90
31263;DHT22;17892;52.080;9.006;2022-12-11T03:33:21;2.20;99.90
31263;DHT22;17892;52.080;9.006;2022-12-11T03:36:00;2.10;99.90
31263;DHT22;17892;52.080;9.006;2022-12-11T03:38:36;2.10;99.90
31263;DHT22;17892;52.080;9.006;2022-12-11T03:41:16;2.10;99.90
31263;DHT22;17892;52.080;9.006;2022-12-11T03:43:43;2.10;99.90
31263;DHT22;17892;52.080;9.006;2022-12-11T03:46:09;2.10;99.90
31263;DHT22;17892;52.080;9.006;2022-12-11T03:48:39;2.10;99.90
31263;DHT22;17892;52.080;9.006;2022-12-11T03:51:07;2.10;99.90
31263;DHT22;17892;52.080;9.006;2022-12-11T03:53:34;2.10;99.90
31263;DHT22;17892;52.080;9.006;2022-12-11T03:56:03;2.10;99.90
31263;DHT22;17892;52.080;9.006;2022-12-11T03:58:30;2.10;99.90
31263;DHT22;17892;52.080;9.006;2022-12-11T04:00:56;2.10;99.90
31263;DHT22;17892;52.080;9.006;2022-12-11T04:03:23;2.10;99.90
31263;DHT22;17892;52.080;9.006;2022-12-11T04:05:52;2.10;99.90
31263;DHT22;17892;52.080;9.006;2022-12-11T04:08:20;2.10;99.90
31263;DHT22;17892;52.080;9.006;2022-12-11T04:10:46;2.10;99.90
31263;DHT22;17892;52.080;9.006;2022-12-11T04:13:13;2.10;99.90
31263;DHT22;17892;52.080;9.006;2022-12-11T04:15:39;2.10;99.90
31263;DHT22;17892;52.080;9.006;2022-12-11T04:18:05;2.10;99.90
31263;DHT22;17892;52.080;9.006;2022-12-11T04:20:54;2.10;99.90
31263;DHT22;17892;52.080;9.006;2022-12-11T04:23:38;2.10;99.90
31263;DHT22;17892;52.080;9.006;2022-12-11T04:26:23;2.10;99.80
31263;DHT22;17892;52.080;9.006;2022-12-11T04:28:49;2.10;99.90
31263;DHT22;17892;52.080;9.006;2022-12-11T04:31:18;2.10;99.90
31263;DHT22;17892;52.080;9.006;2022-12-11T04:33:45;2.10;99.90
31263;DHT22;17892;52.080;9.006;2022-12-11T04:36:12;2.10;99.90
31263;DHT22;17892;52.080;9.006;2022-12-11T04:38:38;2.00;99.90
31263;DHT22;17892;52.080;9.006;2022-12-11T04:41:09;2.10;99.90
31263;DHT22;17892;52.080;9.006;2022-12-11T04:43:37;2.10;99.90
31263;DHT22;17892;52.080;9.006;2022-12-11T04:46:05;2.10;99.90
31263;DHT22;17892;52.080;9.006;2022-12-11T04:48:33;2.00;99.90
31263;DHT22;17892;52.080;9.006;2022-12-11T04:50:59;2.00;99.90
31263;DHT22;17892;52.080;9.006;2022-12-11T04:53:25;2.00;99.90
31263;DHT22;17892;52.080;9.006;2022-12-11T04:55:52;2.00;99.90
31263;DHT22;17892;52.080;9.006;2022-12-11T04:58:19;2.00;99.90
31263;DHT22;17892;52.080;9.006;2022-12-11T05:00:45;2.00;99.90
31263;DHT22;17892;52.080;9.006;2022-12-11T05:03:11;2.00;99.90
31263;DHT22;17892;52.080;9.006;2022-12-11T05:05:37;2.00;99.90
31263;DHT22;17892;52.080;9.006;2022-12-11T05:08:03;2.00;99.90
31263;DHT22;17892;52.080;9.006;2022-12-11T05:10:29;2.00;99.90
31263;DHT22;17892;52.080;9.006;2022-12-11T05:12:55;2.00;99.90
31263;DHT22;17892;52.080;9.006;2022-12-11T05:15:21;2.00;99.90
31263;DHT22;17892;52.080;9.006;2022-12-11T05:17:47;2.00;99.90
31263;DHT22;17892;52.080;9.006;2022-12-11T05:20:13;2.00;99.90
31263;DHT22;17892;52.080;9.006;2022-12-11T05:22:38;2.00;99.90
31263;DHT22;17892;52.080;9.006;2022-12-11T05:25:05;2.00;99.90
31263;DHT22;17892;52.080;9.006;2022-12-11T05:27:32;2.00;99.90
31263;DHT22;17892;52.080;9.006;2022-12-11T05:29:58;2.00;99.90
31263;DHT22;17892;52.080;9.006;2022-12-11T05:32:24;2.00;99.90
31263;DHT22;17892;52.080;9.006;2022-12-11T05:34:50;2.00;99.90
31263;DHT22;17892;52.080;9.006;2022-12-11T05:37:16;2.00;99.90
31263;DHT22;17892;52.080;9.006;2022-12-11T05:39:41;2.00;99.90
31263;DHT22;17892;52.080;9.006;2022-12-11T05:42:07;2.00;99.90
31263;DHT22;17892;52.080;9.006;2022-12-11T05:44:33;1.90;99.90
31263;DHT22;17892;52.080;9.006;2022-12-11T05:46:59;2.00;99.90
31263;DHT22;17892;52.080;9.006;2022-12-11T05:49:25;1.90;99.90
31263;DHT22;17892;52.080;9.006;2022-12-11T05:51:50;2.00;99.90
31263;DHT22;17892;52.080;9.006;2022-12-11T05:54:16;1.90;99.90
31263;DHT22;17892;52.080;9.006;2022-12-11T05:56:42;2.00;99.90
31263;DHT22;17892;52.080;9.006;2022-12-11T05:59:08;1.90;99.90
31263;DHT22;17892;52.080;9.006;2022-12-11T06:01:40;1.90;99.90
31263;DHT22;17892;52.080;9.006;2022-12-11T06:04:07;1.90;99.90
31263;DHT22;17892;52.080;9.006;2022-12-11T06:06:35;2.00;99.90
31263;DHT22;17892;52.080;9.006;2022-12-11T06:09:01;2.00;99.90
31263;DHT22;17892;52.080;9.006;2022-12-11T06:11:29;2.00;99.90
31263;DHT22;17892;52.080;9.006;2022-12-11T06:13:56;1.90;99.90
31263;DHT22;17892;52.080;9.006;2022-12-11T06:16:22;2.00;99.90
31263;DHT22;17892;52.080;9.006;2022-12-11T06:18:49;2.00;99.90
31263;DHT22;17892;52.080;9.006;2022-12-11T06:21:26;2.00;99.90
31263;DHT22;17892;52.080;9.006;2022-12-11T06:23:55;2.00;99.90
31263;DHT22;17892;52.080;9.006;2022-12-11T06:26:23;2.00;99.90
31263;DHT22;17892;52.080;9.006;2022-12-11T06:28:49;2.00;99.90
31263;DHT22;17892;52.080;9.006;2022-12-11T06:31:16;2.00;99.90
31263;DHT22;17892;52.080;9.006;2022-12-11T06:33:43;1.90;99.90
31263;DHT22;17892;52.080;9.006;2022-12-11T06:36:14;2.00;99.90
31263;DHT22;17892;52.080;9.006;2022-12-11T06:38:41;2.00;99.90
31263;DHT22;17892;52.080;9.006;2022-12-11T06:41:08;2.00;99.90
31263;DHT22;17892;52.080;9.006;2022-12-11T06:43:35;2.00;99.90
31263;DHT22;17892;52.080;9.006;2022-12-11T06:46:07;2.00;99.90
31263;DHT22;17892;52.080;9.006;2022-12-11T06:48:35;2.00;99.90
31263;DHT22;17892;52.080;9.006;2022-12-11T06:51:12;2.00;99.90
31263;DHT22;17892;52.080;9.006;2022-12-11T06:53:43;2.00;99.90
31263;DHT22;17892;52.080;9.006;2022-12-11T06:56:12;1.90;99.90
31263;DHT22;17892;52.080;9.006;2022-12-11T06:58:40;2.00;99.90
31263;DHT22;17892;52.080;9.006;2022-12-11T07:01:18;1.90;99.90
31263;DHT22;17892;52.080;9.006;2022-12-11T07:03:45;2.00;99.90
31263;DHT22;17892;52.080;9.006;2022-12-11T07:06:11;1.90;99.90
31263;DHT22;17892;52.080;9.006;2022-12-11T07:08:37;1.90;99.90
31263;DHT22;17892;52.080;9.006;2022-12-11T07:11:11;1.90;99.90
31263;DHT22;17892;52.080;9.006;2022-12-11T07:13:38;2.00;99.90
31263;DHT22;17892;52.080;9.006;2022-12-11T07:16:06;2.00;99.90
31263;DHT22;17892;52.080;9.006;2022-12-11T07:18:56;2.00;99.90
31263;DHT22;17892;52.080;9.006;2022-12-11T07:21:21;2.00;99.90
31263;DHT22;17892;52.080;9.006;2022-12-11T07:23:48;2.00;99.90
31263;DHT22;17892;52.080;9.006;2022-12-11T07:26:17;2.00;99.90
31263;DHT22;17892;52.080;9.006;2022-12-11T07:28:44;2.00;99.90
31263;DHT22;17892;52.080;9.006;2022-12-11T07:31:12;2.00;99.90
31263;DHT22;17892;52.080;9.006;2022-12-11T07:33:40;2.00;99.90
31263;DHT22;17892;52.080;9.006;2022-12-11T07:36:07;2.00;99.90
31263;DHT22;17892;52.080;9.006;2022-12-11T07:38:35;2.00;99.90
31263;DHT22;17892;52.080;9.006;2022-12-11T07:41:07;2.00;99.90
31263;DHT22;17892;52.080;9.006;2022-12-11T07:43:35;2.00;99.90
31263;DHT22;17892;52.080;9.006;2022-12-11T07:46:10;2.00;99.90
31263;DHT22;17892;52.080;9.006;2022-12-11T07:48:38;2.00;99.90
31263;DHT22;17892;52.080;9.006;2022-12-11T07:51:19;2.00;99.90
31263;DHT22;17892;52.080;9.006;2022-12-11T07:53:51;2.10;99.90
31263;DHT22;17892;52.080;9.006;2022-12-11T07:56:26;2.10;99.90
31263;DHT22;17892;52.080;9.006;2022-12-11T07:58:53;2.10;99.90
31263;DHT22;17892;52.080;9.006;2022-12-11T08:01:21;2.10;99.90
31263;DHT22;17892;52.080;9.006;2022-12-11T08:03:48;2.10;99.90
31263;DHT22;17892;52.080;9.006;2022-12-11T08:06:15;2.10;99.90
31263;DHT22;17892;52.080;9.006;2022-12-11T08:08:41;2.10;99.90
31263;DHT22;17892;52.080;9.006;2022-12-11T08:11:10;2.10;99.90
31263;DHT22;17892;52.080;9.006;2022-12-11T08:13:37;2.10;99.90
31263;DHT22;17892;52.080;9.006;2022-12-11T08:16:05;2.10;99.90
31263;DHT22;17892;52.080;9.006;2022-12-11T08:18:33;2.10;99.90
31263;DHT22;17892;52.080;9.006;2022-12-11T08:21:04;2.20;99.90
31263;DHT22;17892;52.080;9.006;2022-12-11T08:23:34;2.20;99.90
31263;DHT22;17892;52.080;9.006;2022-12-11T08:26:04;2.20;99.90
31263;DHT22;17892;52.080;9.006;2022-12-11T08:28:31;2.20;99.90
31263;DHT22;17892;52.080;9.006;2022-12-11T08:30:57;2.20;99.90
31263;DHT22;17892;52.080;9.006;2022-12-11T08:33:24;2.30;99.90
31263;DHT22;17892;52.080;9.006;2022-12-11T08:35:50;2.30;99.90
31263;DHT22;17892;52.080;9.006;2022-12-11T08:38:15;2.30;99.90
31263;DHT22;17892;52.080;9.006;2022-12-11T08:40:41;2.30;99.90
31263;DHT22;17892;52.080;9.006;2022-12-11T08:43:07;2.30;99.90
31263;DHT22;17892;52.080;9.006;2022-12-11T08:45:33;2.30;99.90
31263;DHT22;17892;52.080;9.006;2022-12-11T08:47:59;2.30;99.90
31263;DHT22;17892;52.080;9.006;2022-12-11T08:50:25;2.40;99.90
31263;DHT22;17892;52.080;9.006;2022-12-11T08:52:51;2.40;99.90
31263;DHT22;17892;52.080;9.006;2022-12-11T08:55:18;2.40;99.90
31263;DHT22;17892;52.080;9.006;2022-12-11T08:57:44;2.40;99.90
31263;DHT22;17892;52.080;9.006;2022-12-11T09:00:12;2.50;99.90
31263;DHT22;17892;52.080;9.006;2022-12-11T09:02:39;2.50;99.90
31263;DHT22;17892;52.080;9.006;2022-12-11T09:05:06;2.50;99.90
31263;DHT22;17892;52.080;9.006;2022-12-11T09:07:34;2.60;99.90
31263;DHT22;17892;52.080;9.006;2022-12-11T09:10:03;2.60;99.90
31263;DHT22;17892;52.080;9.006;2022-12-11T09:12:30;2.60;99.90
31263;DHT22;17892;52.080;9.006;2022-12-11T09:14:57;2.60;99.90
31263;DHT22;17892;52.080;9.006;2022-12-11T09:17:23;2.70;99.90
31263;DHT22;17892;52.080;9.006;2022-12-11T09:19:48;2.70;99.90
31263;DHT22;17892;52.080;9.006;2022-12-11T09:22:14;2.70;99.90
31263;DHT22;17892;52.080;9.006;2022-12-11T09:24:40;2.70;99.90
31263;DHT22;17892;52.080;9.006;2022-12-11T09:27:06;2.80;99.90
31263;DHT22;17892;52.080;9.006;2022-12-11T09:29:32;2.80;99.90
31263;DHT22;17892;52.080;9.006;2022-12-11T09:31:57;2.80;99.90
31263;DHT22;17892;52.080;9.006;2022-12-11T09:34:23;2.80;99.90
31263;DHT22;17892;52.080;9.006;2022-12-11T09:36:49;2.90;99.90
31263;DHT22;17892;52.080;9.006;2022-12-11T09:39:16;2.90;99.90
31263;DHT22;17892;52.080;9.006;2022-12-11T09:44:39;2.90;99.90
31263;DHT22;17892;52.080;9.006;2022-12-11T09:47:35;2.90;99.90
31263;DHT22;17892;52.080;9.006;2022-12-11T10:01:21;2.90;99.90
31263;DHT22;17892;52.080;9.006;2022-12-11T10:06:42;3.00;99.90
31263;DHT22;17892;52.080;9.006;2022-12-11T10:17:54;3.00;99.90
31263;DHT22;17892;52.080;9.006;2022-12-11T10:20:29;3.00;99.90
31263;DHT22;17892;52.080;9.006;2022-12-11T10:22:58;3.00;99.90
31263;DHT22;17892;52.080;9.006;2022-12-11T10:25:48;3.00;99.90
31263;DHT22;17892;52.080;9.006;2022-12-11T10:28:18;3.00;99.90
31263;DHT22;17892;52.080;9.006;2022-12-11T10:33:53;3.00;99.90
31263;DHT22;17892;52.080;9.006;2022-12-11T10:36:40;3.00;99.90
31263;DHT22;17892;52.080;9.006;2022-12-11T10:39:18;3.00;99.90
31263;DHT22;17892;52.080;9.006;2022-12-11T10:41:47;3.00;99.90
31263;DHT22;17892;52.080;9.006;2022-12-11T10:44:22;3.00;99.90
31263;DHT22;17892;52.080;9.006;2022-12-11T10:47:13;3.10;99.90
31263;DHT22;17892;52.080;9.006;2022-12-11T10:49:51;3.10;99.90
31263;DHT22;17892;52.080;9.006;2022-12-11T10:55:03;3.10;99.90
31263;DHT22;17892;52.080;9.006;2022-12-11T10:57:34;3.10;99.90
31263;DHT22;17892;52.080;9.006;2022-12-11T11:00:04;3.10;99.90
31263;DHT22;17892;52.080;9.006;2022-12-11T11:02:34;3.10;99.90
31263;DHT22;17892;52.080;9.006;2022-12-11T11:05:13;3.10;99.90
31263;DHT22;17892;52.080;9.006;2022-12-11T11:08:22;3.10;99.90
31263;DHT22;17892;52.080;9.006;2022-12-11T11:10:59;3.20;99.90
31263;DHT22;17892;52.080;9.006;2022-12-11T11:13:27;3.20;99.90
31263;DHT22;17892;52.080;9.006;2022-12-11T11:16:00;3.20;99.90
31263;DHT22;17892;52.080;9.006;2022-12-11T11:18:29;3.20;99.90
31263;DHT22;17892;52.080;9.006;2022-12-11T11:20:56;3.20;99.90
31263;DHT22;17892;52.080;9.006;2022-12-11T11:23:23;3.20;99.90
31263;DHT22;17892;52.080;9.006;2022-12-11T11:25:58;3.20;99.90
31263;DHT22;17892;52.080;9.006;2022-12-11T11:28:34;3.10;99.70
31263;DHT22;17892;52.080;9.006;2022-12-11T11:31:13;3.10;99.90
31263;DHT22;17892;52.080;9.006;2022-12-11T11:34:00;3.00;99.90
31263;DHT22;17892;52.080;9.006;2022-12-11T11:36:34;3.00;99.70
31263;DHT22;17892;52.080;9.006;2022-12-11T11:39:39;2.90;99.80
31263;DHT22;17892;52.080;9.006;2022-12-11T11:42:22;2.90;98.50
31263;DHT22;17892;52.080;9.006;2022-12-11T11:45:25;2.80;99.50
31263;DHT22;17892;52.080;9.006;2022-12-11T11:48:09;2.70;99.10
31263;DHT22;17892;52.080;9.006;2022-12-11T11:50:55;2.70;99.90
31263;DHT22;17892;52.080;9.006;2022-12-11T11:53:33;2.70;99.90
31263;DHT22;17892;52.080;9.006;2022-12-11T11:56:26;2.70;99.90
31263;DHT22;17892;52.080;9.006;2022-12-11T12:01:44;2.60;99.90
31263;DHT22;17892;52.080;9.006;2022-12-11T12:04:10;2.50;99.90
31263;DHT22;17892;52.080;9.006;2022-12-11T12:10:05;2.50;99.90
31263;DHT22;17892;52.080;9.006;2022-12-11T12:18:12;2.50;99.90
31263;DHT22;17892;52.080;9.006;2022-12-11T12:21:46;2.50;99.90
31263;DHT22;17892;52.080;9.006;2022-12-11T12:29:19;2.50;99.90
31263;DHT22;17892;52.080;9.006;2022-12-11T12:32:08;2.50;99.90
31263;DHT22;17892;52.080;9.006;2022-12-11T12:34:54;2.50;99.90
31263;DHT22;17892;52.080;9.006;2022-12-11T12:37:41;2.50;99.90
31263;DHT22;17892;52.080;9.006;2022-12-11T12:48:44;2.50;99.90
31263;DHT22;17892;52.080;9.006;2022-12-11T12:51:13;2.60;99.90
31263;DHT22;17892;52.080;9.006;2022-12-11T12:53:40;2.50;99.90
31263;DHT22;17892;52.080;9.006;2022-12-11T12:56:11;2.50;99.90
31263;DHT22;17892;52.080;9.006;2022-12-11T12:58:43;2.50;99.90
31263;DHT22;17892;52.080;9.006;2022-12-11T13:01:24;2.50;99.90
31263;DHT22;17892;52.080;9.006;2022-12-11T13:06:37;2.50;99.90
31263;DHT22;17892;52.080;9.006;2022-12-11T13:11:48;2.50;99.90
31263;DHT22;17892;52.080;9.006;2022-12-11T13:16:51;2.60;99.90
31263;DHT22;17892;52.080;9.006;2022-12-11T13:19:33;2.60;99.90
31263;DHT22;17892;52.080;9.006;2022-12-11T13:27:36;2.60;99.90
31263;DHT22;17892;52.080;9.006;2022-12-11T13:30:24;2.60;99.90
31263;DHT22;17892;52.080;9.006;2022-12-11T13:33:03;2.50;99.90
31263;DHT22;17892;52.080;9.006;2022-12-11T13:35:31;2.50;99.90
31263;DHT22;17892;52.080;9.006;2022-12-11T13:38:19;2.50;99.90
31263;DHT22;17892;52.080;9.006;2022-12-11T13:40:53;2.50;99.90
31263;DHT22;17892;52.080;9.006;2022-12-11T13:43:27;2.40;99.90
31263;DHT22;17892;52.080;9.006;2022-12-11T13:46:00;2.40;99.90
31263;DHT22;17892;52.080;9.006;2022-12-11T13:48:35;2.40;99.90
31263;DHT22;17892;52.080;9.006;2022-12-11T13:51:04;2.40;99.90
31263;DHT22;17892;52.080;9.006;2022-12-11T13:53:31;2.40;99.90
31263;DHT22;17892;52.080;9.006;2022-12-11T13:56:00;2.40;99.90
31263;DHT22;17892;52.080;9.006;2022-12-11T13:58:29;2.40;99.90
31263;DHT22;17892;52.080;9.006;2022-12-11T14:01:09;2.40;99.90
31263;DHT22;17892;52.080;9.006;2022-12-11T14:03:54;2.40;99.90
31263;DHT22;17892;52.080;9.006;2022-12-11T14:06:33;2.40;99.90
31263;DHT22;17892;52.080;9.006;2022-12-11T14:09:02;2.40;99.90
31263;DHT22;17892;52.080;9.006;2022-12-11T14:11:40;2.40;99.90
31263;DHT22;17892;52.080;9.006;2022-12-11T14:14:19;2.40;99.90
31263;DHT22;17892;52.080;9.006;2022-12-11T14:16:48;2.40;99.90
31263;DHT22;17892;52.080;9.006;2022-12-11T14:19:18;2.30;99.90
31263;DHT22;17892;52.080;9.006;2022-12-11T14:22:00;2.30;99.90
31263;DHT22;17892;52.080;9.006;2022-12-11T14:24:28;2.40;99.90
31263;DHT22;17892;52.080;9.006;2022-12-11T14:26:55;2.30;99.90
31263;DHT22;17892;52.080;9.006;2022-12-11T14:29:32;2.30;99.90
31263;DHT22;17892;52.080;9.006;2022-12-11T14:32:05;2.30;99.90
31263;DHT22;17892;52.080;9.006;2022-12-11T14:34:36;2.30;99.90
31263;DHT22;17892;52.080;9.006;2022-12-11T14:37:06;2.30;99.90
31263;DHT22;17892;52.080;9.006;2022-12-11T14:39:37;2.30;99.90
31263;DHT22;17892;52.080;9.006;2022-12-11T14:42:36;2.30;99.90
31263;DHT22;17892;52.080;9.006;2022-12-11T14:45:12;2.30;99.90
31263;DHT22;17892;52.080;9.006;2022-12-11T14:47:44;2.30;99.90
31263;DHT22;17892;52.080;9.006;2022-12-11T14:50:26;2.30;99.90
31263;DHT22;17892;52.080;9.006;2022-12-11T14:53:04;2.30;99.90
31263;DHT22;17892;52.080;9.006;2022-12-11T14:55:34;2.30;99.90
31263;DHT22;17892;52.080;9.006;2022-12-11T14:58:03;2.30;99.90
31263;DHT22;17892;52.080;9.006;2022-12-11T15:00:35;2.30;99.90
31263;DHT22;17892;52.080;9.006;2022-12-11T15:05:53;2.30;99.90
31263;DHT22;17892;52.080;9.006;2022-12-11T15:11:13;2.30;99.90
31263;DHT22;17892;52.080;9.006;2022-12-11T15:13:59;2.30;99.90
31263;DHT22;17892;52.080;9.006;2022-12-11T15:16:31;2.30;99.90
31263;DHT22;17892;52.080;9.006;2022-12-11T15:18:58;2.30;99.90
31263;DHT22;17892;52.080;9.006;2022-12-11T15:21:29;2.30;99.90
31263;DHT22;17892;52.080;9.006;2022-12-11T15:23:58;2.30;99.90
31263;DHT22;17892;52.080;9.006;2022-12-11T15:26:45;2.30;99.90
31263;DHT22;17892;52.080;9.006;2022-12-11T15:29:38;2.30;99.90
31263;DHT22;17892;52.080;9.006;2022-12-11T15:34:47;2.30;99.90
31263;DHT22;17892;52.080;9.006;2022-12-11T15:37:26;2.30;99.90
31263;DHT22;17892;52.080;9.006;2022-12-11T15:39:54;2.30;99.90
31263;DHT22;17892;52.080;9.006;2022-12-11T15:42:34;2.20;99.90
31263;DHT22;17892;52.080;9.006;2022-12-11T15:45:02;2.20;99.90
31263;DHT22;17892;52.080;9.006;2022-12-11T15:47:30;2.20;99.90
31263;DHT22;17892;52.080;9.006;2022-12-11T15:49:59;2.20;99.90
31263;DHT22;17892;52.080;9.006;2022-12-11T15:52:27;2.20;99.90
31263;DHT22;17892;52.080;9.006;2022-12-11T15:54:53;2.20;99.90
31263;DHT22;17892;52.080;9.006;2022-12-11T15:57:20;2.20;99.90
31263;DHT22;17892;52.080;9.006;2022-12-11T15:59:49;2.20;99.90
31263;DHT22;17892;52.080;9.006;2022-12-11T16:02:16;2.20;99.90
31263;DHT22;17892;52.080;9.006;2022-12-11T16:04:42;2.20;99.90
31263;DHT22;17892;52.080;9.006;2022-12-11T16:07:20;2.20;99.90
31263;DHT22;17892;52.080;9.006;2022-12-11T16:09:47;2.20;99.90
31263;DHT22;17892;52.080;9.006;2022-12-11T16:12:13;2.20;99.90
31263;DHT22;17892;52.080;9.006;2022-12-11T16:14:41;2.20;99.90
31263;DHT22;17892;52.080;9.006;2022-12-11T16:17:12;2.20;99.90
31263;DHT22;17892;52.080;9.006;2022-12-11T16:19:40;2.20;99.90
31263;DHT22;17892;52.080;9.006;2022-12-11T16:22:07;2.20;99.90
31263;DHT22;17892;52.080;9.006;2022-12-11T16:24:34;2.20;99.90
31263;DHT22;17892;52.080;9.006;2022-12-11T16:27:00;2.20;99.90
31263;DHT22;17892;52.080;9.006;2022-12-11T16:29:26;2.10;99.90
31263;DHT22;17892;52.080;9.006;2022-12-11T16:31:52;2.10;99.90
31263;DHT22;17892;52.080;9.006;2022-12-11T16:34:18;2.10;99.90
31263;DHT22;17892;52.080;9.006;2022-12-11T16:36:49;2.10;99.90
31263;DHT22;17892;52.080;9.006;2022-12-11T16:39:15;2.10;99.90
31263;DHT22;17892;52.080;9.006;2022-12-11T16:41:41;2.10;99.90
31263;DHT22;17892;52.080;9.006;2022-12-11T16:44:07;2.10;99.90
31263;DHT22;17892;52.080;9.006;2022-12-11T16:46:33;2.10;99.90
31263;DHT22;17892;52.080;9.006;2022-12-11T16:48:59;2.10;99.90
31263;DHT22;17892;52.080;9.006;2022-12-11T16:51:24;2.10;99.90
31263;DHT22;17892;52.080;9.006;2022-12-11T16:53:50;2.10;99.90
31263;DHT22;17892;52.080;9.006;2022-12-11T16:56:16;2.10;99.90
31263;DHT22;17892;52.080;9.006;2022-12-11T16:58:42;2.10;99.90
31263;DHT22;17892;52.080;9.006;2022-12-11T17:01:11;2.10;99.90
31263;DHT22;17892;52.080;9.006;2022-12-11T17:03:39;2.10;99.90
31263;DHT22;17892;52.080;9.006;2022-12-11T17:06:10;2.10;99.90
31263;DHT22;17892;52.080;9.006;2022-12-11T17:08:38;2.10;99.90
31263;DHT22;17892;52.080;9.006;2022-12-11T17:11:05;2.10;99.90
31263;DHT22;17892;52.080;9.006;2022-12-11T17:13:33;2.10;99.90
31263;DHT22;17892;52.080;9.006;2022-12-11T17:15:59;2.10;99.90
31263;DHT22;17892;52.080;9.006;2022-12-11T17:18:28;2.10;99.90
31263;DHT22;17892;52.080;9.006;2022-12-11T17:20:54;2.10;99.90
31263;DHT22;17892;52.080;9.006;2022-12-11T17:23:20;2.10;99.90
31263;DHT22;17892;52.080;9.006;2022-12-11T17:25:45;2.10;99.90
31263;DHT22;17892;52.080;9.006;2022-12-11T17:28:11;2.10;99.90
31263;DHT22;17892;52.080;9.006;2022-12-11T17:30:42;2.10;99.90
31263;DHT22;17892;52.080;9.006;2022-12-11T17:33:09;2.10;99.90
31263;DHT22;17892;52.080;9.006;2022-12-11T17:35:36;2.00;99.90
31263;DHT22;17892;52.080;9.006;2022-12-11T17:38:03;2.00;99.90
31263;DHT22;17892;52.080;9.006;2022-12-11T17:40:29;2.00;99.90